Time;durP1;ratioP1;P1;durP2;ratioP2;P2;SDS_P1;SDS_P2;PMS_P1;PMS_P2;Temp;Humidity;BMP_temperature;BMP_pressure;BME280_temperature;BME280_humidity;BME280_pressure;Samples;Min_cycle;Max_cycle;Signal;HPM_P1;HPM_P2
2022/12/06 00:01:17;;;;;;;7.72;4.35;;;;;;;-1.69;80.32;102331.00;1830338;77;27470;-61
2022/12/06 00:03:47;;;;;;;7.92;4.30;;;;;;;-1.68;80.32;102331.86;1829379;76;25836;-61
2022/12/06 00:06:18;;;;;;;7.35;4.50;;;;;;;-1.66;80.26;102332.26;1797896;78;25784;-61
2022/12/06 00:08:46;;;;;;;11.83;4.45;;;;;;;-1.68;80.34;102326.16;1825426;78;25792;-61
2022/12/06 00:11:29;;;;;;;9.83;4.97;;;;;;;-1.70;80.32;102320.02;1847222;76;25680;-62
2022/12/06 00:14:06;;;;;;;7.83;4.45;;;;;;;-1.74;80.37;102328.42;1858094;76;27442;-61
2022/12/06 00:16:35;;;;;;;7.45;4.15;;;;;;;-1.77;80.56;102323.62;1865510;76;25435;-62
2022/12/06 00:19:02;;;;;;;7.92;5.17;;;;;;;-1.80;80.62;102314.41;1865740;76;25717;-61
2022/12/06 00:21:36;;;;;;;13.10;5.35;;;;;;;-1.81;80.56;102319.27;1865852;76;25937;-61
2022/12/06 00:24:07;;;;;;;7.70;4.80;;;;;;;-1.82;80.89;102317.09;1840422;76;25890;-61
2022/12/06 00:26:41;;;;;;;10.23;4.55;;;;;;;-1.82;81.01;102316.20;1877461;76;28242;-61
2022/12/06 00:29:20;;;;;;;8.63;4.78;;;;;;;-1.85;80.93;102314.47;1886036;76;43975;-61
2022/12/06 00:31:48;;;;;;;9.65;5.30;;;;;;;-1.86;81.08;102306.59;1874617;75;25788;-61
2022/12/06 00:34:15;;;;;;;7.85;4.53;;;;;;;-1.85;81.08;102308.34;1862940;76;26587;-61
2022/12/06 00:36:43;;;;;;;8.63;4.37;;;;;;;-1.85;81.17;102299.11;1825294;78;25760;-61
2022/12/06 00:39:13;;;;;;;8.10;4.17;;;;;;;-1.86;81.24;102294.72;1825158;78;27566;-61
2022/12/06 00:41:42;;;;;;;7.25;4.42;;;;;;;-1.84;81.29;102288.52;1832051;77;25888;-61
2022/12/06 00:44:10;;;;;;;7.95;4.42;;;;;;;-1.82;81.40;102288.49;1842572;77;25749;-62
2022/12/06 00:46:38;;;;;;;7.40;3.98;;;;;;;-1.85;81.41;102292.51;1843389;77;25796;-61
2022/12/06 00:49:07;;;;;;;10.35;5.42;;;;;;;-1.86;81.47;102290.76;1833450;77;25763;-61
2022/12/06 00:51:35;;;;;;;6.12;4.50;;;;;;;-1.87;81.49;102292.50;1818918;77;27406;-61
2022/12/06 00:54:03;;;;;;;8.98;4.47;;;;;;;-1.90;81.80;102288.61;1820943;77;26386;-61
2022/12/06 00:56:30;;;;;;;11.40;5.25;;;;;;;-1.93;82.04;102292.13;1843381;77;25795;-61
2022/12/06 00:58:57;;;;;;;7.50;4.50;;;;;;;-1.94;82.06;102289.52;1841963;77;26272;-62
2022/12/06 01:01:28;;;;;;;9.83;4.67;;;;;;;-1.93;82.07;102284.67;1843359;77;25999;-60
2022/12/06 01:03:59;;;;;;;10.75;5.15;;;;;;;-1.96;82.34;102293.50;1842759;77;27487;-61
2022/12/06 01:06:29;;;;;;;7.78;5.40;;;;;;;-2.01;82.58;102280.80;1843132;77;26879;-62
2022/12/06 01:09:00;;;;;;;12.50;4.50;;;;;;;-2.03;82.78;102281.71;1842062;77;26007;-61
2022/12/06 01:11:28;;;;;;;6.30;3.90;;;;;;;-2.03;82.89;102282.61;1859973;77;25792;-61
2022/12/06 01:13:56;;;;;;;7.72;5.15;;;;;;;-2.05;83.05;102273.38;1859608;77;25660;-61
2022/12/06 01:16:27;;;;;;;9.38;5.22;;;;;;;-2.02;83.00;102272.48;1859806;77;27637;-61
2022/12/06 01:19:02;;;;;;;8.38;5.53;;;;;;;-1.97;83.19;102271.97;1850601;77;25737;-61
2022/12/06 01:21:30;;;;;;;8.38;4.90;;;;;;;-1.97;83.18;102258.78;1834825;77;25780;-61
2022/12/06 01:23:56;;;;;;;10.20;5.22;;;;;;;-1.93;83.27;102256.98;1822508;78;25646;-61
2022/12/06 01:26:30;;;;;;;11.18;5.62;;;;;;;-1.93;83.33;102256.52;1822386;78;25781;-62
2022/12/06 01:28:58;;;;;;;6.83;4.75;;;;;;;-1.97;83.48;102253.52;1822724;77;29764;-62
2022/12/06 01:31:26;;;;;;;6.87;4.90;;;;;;;-1.97;83.61;102242.96;1822806;78;26083;-62
2022/12/06 01:33:53;;;;;;;8.85;4.87;;;;;;;-1.98;83.86;102236.40;1822492;78;25826;-61
2022/12/06 01:36:24;;;;;;;11.25;5.50;;;;;;;-2.00;84.08;102235.08;1822876;78;26404;-61
2022/12/06 01:38:54;;;;;;;9.45;5.25;;;;;;;-2.02;84.33;102231.61;1826488;77;25785;-62
2022/12/06 01:41:24;;;;;;;10.48;5.42;;;;;;;-2.03;84.39;102224.59;1843615;76;28168;-61
2022/12/06 01:43:52;;;;;;;9.45;5.05;;;;;;;-2.01;84.48;102229.83;1856409;77;25487;-61
2022/12/06 01:46:36;;;;;;;8.05;5.05;;;;;;;-2.02;84.51;102228.08;1856120;77;25645;-61
2022/12/06 01:49:16;;;;;;;;;;;;;;;-2.03;84.63;102228.55;1858604;77;26479;-61
2022/12/06 01:51:56;;;;;;;8.38;5.30;;;;;;;-2.03;84.78;102228.55;1856537;77;25992;-61
2022/12/06 01:54:24;;;;;;;11.48;5.15;;;;;;;-2.06;85.01;102231.20;1828168;77;26706;-61
2022/12/06 01:56:54;;;;;;;6.20;4.85;;;;;;;-2.08;84.93;102224.64;1789495;78;25925;-61
2022/12/06 01:59:22;;;;;;;11.12;5.33;;;;;;;-2.06;85.06;102225.94;1831268;77;25733;-61
2022/12/06 02:01:50;;;;;;;8.95;5.40;;;;;;;-2.02;85.00;102226.34;1821048;78;25784;-61
2022/12/06 02:04:18;;;;;;;9.23;5.60;;;;;;;-1.96;84.98;102222.72;1821354;78;27383;-61
2022/12/06 02:06:46;;;;;;;7.37;5.12;;;;;;;-1.98;84.97;102224.06;1820854;77;28421;-60
2022/12/06 02:09:14;;;;;;;9.58;5.65;;;;;;;-2.00;84.93;102213.13;1844902;77;26740;-61
2022/12/06 02:11:42;;;;;;;9.35;5.45;;;;;;;-2.02;84.94;102217.11;1842620;77;25687;-61
2022/12/06 02:14:13;;;;;;;6.53;5.15;;;;;;;-2.01;85.17;102212.69;1843355;77;25750;-61
2022/12/06 02:17:14;;;;;;;9.30;5.60;;;;;;;-2.01;85.17;102215.33;1842317;77;25770;-61
2022/12/06 02:20:04;;;;;;;7.33;5.17;;;;;;;-1.98;85.11;102218.80;1818777;77;27505;-61
2022/12/06 02:22:58;;;;;;;8.70;5.40;;;;;;;-1.98;85.29;102212.20;1818639;77;25661;-60
2022/12/06 02:25:48;;;;;;;8.38;6.00;;;;;;;-1.99;85.29;102211.77;1853507;77;25678;-61
2022/12/06 02:28:23;;;;;;;9.25;5.22;;;;;;;-2.00;85.31;102205.20;1830222;77;25819;-60
2022/12/06 02:31:10;;;;;;;10.90;5.87;;;;;;;-1.95;85.43;102201.62;1815757;78;26127;-61
2022/12/06 02:33:49;;;;;;;9.45;5.10;;;;;;;-1.91;85.29;102205.09;1816036;78;27626;-61
2022/12/06 02:36:33;;;;;;;9.20;5.28;;;;;;;-1.91;85.27;102199.34;1837804;77;25825;-62
2022/12/06 02:39:11;;;;;;;8.45;5.90;;;;;;;-1.93;85.14;102194.53;1856290;77;25686;-61
2022/12/06 02:41:48;;;;;;;8.15;5.10;;;;;;;-1.91;85.15;102195.86;1852187;77;25948;-61
2022/12/06 02:44:27;;;;;;;11.28;5.47;;;;;;;-1.87;85.16;102199.32;1842976;77;27344;-61
2022/12/06 02:46:57;;;;;;;8.58;4.83;;;;;;;-1.86;85.04;102190.06;1841946;77;28318;-62
2022/12/06 02:49:27;;;;;;;9.90;5.75;;;;;;;-1.84;85.05;102196.66;1843171;77;25730;-61
2022/12/06 02:51:56;;;;;;;7.78;4.78;;;;;;;-1.85;84.97;102196.22;1843240;77;25736;-62
2022/12/06 02:54:25;;;;;;;9.75;5.10;;;;;;;-1.85;85.15;102189.16;1820924;77;25843;-61
2022/12/06 02:56:52;;;;;;;10.03;5.70;;;;;;;-1.86;85.16;102190.06;1835385;77;25728;-61
2022/12/06 02:59:21;;;;;;;12.58;6.15;;;;;;;-1.86;85.03;102187.88;1835334;77;27494;-61
2022/12/06 03:01:52;;;;;;;8.73;5.33;;;;;;;-1.91;85.16;102182.67;1819526;77;25820;-61
2022/12/06 03:04:46;;;;;;;6.95;4.83;;;;;;;-1.90;85.21;102178.68;1819680;78;25808;-61
2022/12/06 03:07:39;;;;;;;10.48;6.22;;;;;;;-1.90;85.22;102183.09;1822654;77;26359;-61
2022/12/06 03:10:23;;;;;;;8.05;5.55;;;;;;;-1.89;85.22;102175.61;1808311;77;25845;-61
2022/12/06 03:13:16;;;;;;;10.18;5.58;;;;;;;-1.87;85.29;102174.27;1789227;78;27438;-61
2022/12/06 03:16:06;;;;;;;7.97;5.43;;;;;;;-1.83;85.33;102173.30;1815288;77;26275;-61
2022/12/06 03:18:44;;;;;;;8.43;5.30;;;;;;;-1.87;85.21;102176.44;1819245;78;25653;-61
2022/12/06 03:21:16;;;;;;;8.43;5.47;;;;;;;-1.87;85.20;102180.39;1823292;77;25806;-61
2022/12/06 03:23:47;;;;;;;7.53;5.45;;;;;;;-1.86;85.20;102166.31;1842922;77;25726;-61
2022/12/06 03:26:20;;;;;;;8.40;4.62;;;;;;;-1.85;85.05;102164.11;1842705;77;28179;-61
2022/12/06 03:28:50;;;;;;;8.88;5.08;;;;;;;-1.79;84.95;102164.47;1842418;77;25833;-61
2022/12/06 03:31:21;;;;;;;8.55;5.50;;;;;;;-1.81;84.97;102162.30;1837452;77;25436;-60
2022/12/06 03:33:52;;;;;;;8.63;5.12;;;;;;;-1.81;84.88;102164.94;1821855;77;25750;-61
2022/12/06 03:36:21;;;;;;;8.43;4.80;;;;;;;-1.83;85.01;102160.11;1821543;77;25801;-61
2022/12/06 03:39:01;;;;;;;7.60;5.22;;;;;;;-1.83;85.10;102160.11;1821924;78;27454;-61
2022/12/06 03:41:39;;;;;;;7.78;5.37;;;;;;;-1.82;85.25;102167.14;1829119;77;25797;-62
2022/12/06 03:44:08;;;;;;;8.73;5.45;;;;;;;-1.84;85.39;102156.63;1856117;77;25677;-61
2022/12/06 03:46:47;;;;;;;15.83;5.80;;;;;;;-1.79;85.33;102156.55;1855024;77;25987;-61
2022/12/06 03:49:32;;;;;;;9.53;5.30;;;;;;;-1.79;85.26;102156.09;1855032;77;25786;-61
2022/12/06 03:51:59;;;;;;;7.47;5.03;;;;;;;-1.79;85.23;102152.59;1856091;77;27529;-62
2022/12/06 03:54:26;;;;;;;9.48;5.95;;;;;;;-1.83;85.33;102153.52;1851552;77;25993;-60
2022/12/06 03:56:53;;;;;;;8.20;5.95;;;;;;;-1.83;85.43;102154.84;1837163;77;25756;-62
2022/12/06 03:59:23;;;;;;;9.15;4.97;;;;;;;-1.82;85.70;102156.16;1842882;77;25938;-62
2022/12/06 04:01:50;;;;;;;8.08;5.05;;;;;;;-1.82;85.64;102148.67;1856469;77;25917;-60
2022/12/06 04:04:17;;;;;;;9.95;6.03;;;;;;;-1.79;85.78;102146.86;1856195;77;27555;-61
2022/12/06 04:06:43;;;;;;;8.80;5.45;;;;;;;-1.77;85.85;102137.63;1855827;77;25566;-60
2022/12/06 04:11:55;;;;;;;8.80;5.45;;;;;;;-1.72;85.79;102141.05;1856357;77;25716;-61
2022/12/06 04:14:30;;;;;;;10.72;5.58;;;;;;;-1.71;85.76;102137.98;1823557;77;25666;-61
2022/12/06 04:19:36;;;;;;;10.95;6.50;;;;;;;-1.70;85.89;102137.09;1855130;77;25753;-61
2022/12/06 04:24:48;;;;;;;7.62;5.30;;;;;;;-1.69;85.94;102137.48;1856260;77;25773;-61
2022/12/06 04:41:01;;;;;;;9.25;5.45;;;;;;;-1.71;85.99;102120.38;1856118;77;25741;-61
2022/12/06 04:43:42;;;;;;;7.08;5.17;;;;;;;-1.73;86.00;102127.44;1845680;77;27395;-61
2022/12/06 04:46:13;;;;;;;6.08;4.83;;;;;;;-1.70;86.21;102131.81;1824606;77;25742;-61
2022/12/06 04:48:41;;;;;;;8.58;5.65;;;;;;;-1.68;86.14;102131.31;1790104;80;25822;-60
2022/12/06 04:51:11;;;;;;;6.05;4.53;;;;;;;-1.68;86.12;102134.84;1789502;80;26636;-60
2022/12/06 04:53:36;;;;;;;6.08;4.95;;;;;;;-1.69;86.11;102122.55;1809005;77;25742;-60
2022/12/06 04:56:05;;;;;;;7.17;4.95;;;;;;;-1.74;86.30;102118.66;1842454;77;27616;-60
2022/12/06 04:58:32;;;;;;;5.78;4.60;;;;;;;-1.73;86.27;102122.16;1843067;77;25683;-60
2022/12/06 05:00:58;;;;;;;6.42;4.60;;;;;;;-1.69;86.24;102117.27;1839480;77;25735;-60
2022/12/06 05:03:27;;;;;;;8.93;4.55;;;;;;;-1.67;86.31;102113.28;1822457;78;26251;-61
2022/12/06 05:05:54;;;;;;;7.60;4.67;;;;;;;-1.67;86.20;102119.88;1816626;77;26015;-60
2022/12/06 05:08:21;;;;;;;7.95;4.67;;;;;;;-1.67;86.41;102115.48;1802304;77;27846;-61
2022/12/06 05:10:49;;;;;;;9.38;4.65;;;;;;;-1.65;86.40;102108.86;1831656;77;26153;-60
2022/12/06 05:13:19;;;;;;;6.53;4.50;;;;;;;-1.67;86.38;102112.84;1840309;77;25800;-60
2022/12/06 05:15:56;;;;;;;7.30;5.00;;;;;;;-1.66;86.44;102110.60;1840150;77;25773;-60
2022/12/06 05:18:24;;;;;;;6.97;4.60;;;;;;;-1.62;86.23;102107.03;1834268;77;25757;-60
2022/12/06 05:21:06;;;;;;;10.08;6.45;;;;;;;-1.55;86.16;102102.97;1838697;77;27456;-60
2022/12/06 05:23:34;;;;;;;7.58;5.60;;;;;;;-1.54;86.16;102093.72;1833904;77;25916;-60
2022/12/06 05:26:05;;;;;;;6.90;4.70;;;;;;;-1.58;86.23;102099.50;1833495;77;25630;-62
2022/12/06 05:28:33;;;;;;;7.00;4.67;;;;;;;-1.62;86.21;102094.30;1835874;77;26533;-62
2022/12/06 05:31:01;;;;;;;7.28;5.05;;;;;;;-1.64;86.52;102098.27;1842712;77;25785;-62
2022/12/06 05:33:29;;;;;;;6.25;4.37;;;;;;;-1.66;86.77;102101.83;1842954;77;27452;-61
2022/12/06 05:35:56;;;;;;;8.15;4.83;;;;;;;-1.68;86.87;102091.74;1841907;77;25796;-61
2022/12/06 05:38:23;;;;;;;6.95;5.45;;;;;;;-1.65;87.03;102094.34;1843067;77;25698;-62
2022/12/06 05:40:50;;;;;;;7.12;4.72;;;;;;;-1.61;86.86;102098.66;1841080;77;26105;-62
2022/12/06 05:43:16;;;;;;;6.65;4.53;;;;;;;-1.63;87.01;102096.05;1834420;77;25700;-62
2022/12/06 05:45:43;;;;;;;10.25;5.12;;;;;;;-1.67;87.15;102094.37;1828805;78;27505;-62
2022/12/06 05:48:10;;;;;;;6.25;4.67;;;;;;;-1.62;87.22;102094.30;1842269;77;25838;-62
2022/12/06 05:50:37;;;;;;;5.58;4.22;;;;;;;-1.60;87.10;102096.02;1842822;77;25840;-62
2022/12/06 05:53:04;;;;;;;6.47;4.22;;;;;;;-1.60;87.18;102101.72;1840011;77;25896;-62
2022/12/06 05:55:31;;;;;;;10.15;4.05;;;;;;;-1.59;87.28;102107.00;1825238;77;26479;-62
2022/12/06 05:57:58;;;;;;;8.23;4.20;;;;;;;-1.57;87.19;102102.54;1789538;80;27465;-62
2022/12/06 06:00:25;;;;;;;7.58;4.95;;;;;;;-1.58;87.19;102102.14;1829137;77;26490;-63
2022/12/06 06:02:52;;;;;;;8.78;4.87;;;;;;;-1.55;87.21;102101.64;1835447;77;25746;-62
2022/12/06 06:05:18;;;;;;;11.25;4.00;;;;;;;-1.52;87.09;102113.48;1833708;77;25783;-62
2022/12/06 06:07:45;;;;;;;5.60;4.00;;;;;;;-1.51;87.11;102110.80;1831007;77;25746;-62
2022/12/06 06:10:13;;;;;;;5.97;3.80;;;;;;;-1.48;87.26;102103.31;1842035;77;28183;-63
2022/12/06 06:12:40;;;;;;;6.10;4.30;;;;;;;-1.52;87.34;102108.20;1862322;77;25725;-62
2022/12/06 06:15:08;;;;;;;6.22;4.30;;;;;;;-1.49;87.36;102108.16;1862799;77;25698;-62
2022/12/06 06:17:35;;;;;;;8.60;3.87;;;;;;;-1.50;87.28;102109.91;1856544;77;25861;-62
2022/12/06 06:20:08;;;;;;;6.65;4.53;;;;;;;-1.51;87.24;102098.08;1837355;77;25492;-62
2022/12/06 06:22:35;;;;;;;6.60;4.83;;;;;;;-1.54;87.31;102109.56;1841092;77;28076;-62
2022/12/06 06:25:03;;;;;;;9.93;4.35;;;;;;;-1.53;87.54;102102.50;1842846;77;25674;-62
2022/12/06 06:27:36;;;;;;;4.78;3.92;;;;;;;-1.53;87.29;102098.54;1843010;77;25725;-62
2022/12/06 06:30:07;;;;;;;6.80;4.33;;;;;;;-1.51;87.50;102100.25;1842910;77;26479;-62
2022/12/06 06:32:34;;;;;;;8.60;4.83;;;;;;;-1.48;87.39;102096.71;1842595;77;25812;-62
2022/12/06 06:35:02;;;;;;;7.55;4.42;;;;;;;-1.44;87.30;102099.70;1841131;77;28459;-62
2022/12/06 06:37:29;;;;;;;7.90;4.60;;;;;;;-1.39;87.42;102095.20;1830348;77;25726;-64
2022/12/06 06:39:56;;;;;;;8.50;4.15;;;;;;;-1.37;87.14;102099.16;1836003;77;25757;-63
2022/12/06 06:42:22;;;;;;;5.92;3.60;;;;;;;-1.38;87.06;102091.67;1842100;77;25816;-62
2022/12/06 06:44:50;;;;;;;8.25;4.75;;;;;;;-1.39;87.09;102082.47;1850903;77;25732;-62
2022/12/06 06:47:17;;;;;;;8.78;5.08;;;;;;;-1.44;87.22;102082.55;1841534;77;27469;-63
2022/12/06 06:49:44;;;;;;;8.88;5.33;;;;;;;-1.41;87.28;102081.19;1841991;77;25463;-62
2022/12/06 06:52:11;;;;;;;9.05;5.15;;;;;;;-1.40;87.39;102072.38;1846283;77;26405;-62
2022/12/06 06:54:38;;;;;;;7.55;4.55;;;;;;;-1.33;87.30;102079.28;1845375;77;25762;-62
2022/12/06 06:57:05;;;;;;;6.72;4.05;;;;;;;-1.32;87.20;102070.89;1845211;77;25773;-62
2022/12/06 06:59:32;;;;;;;8.53;4.70;;;;;;;-1.33;87.31;102071.36;1789692;78;27480;-62
2022/12/06 07:01:59;;;;;;;6.28;4.70;;;;;;;-1.29;87.14;102066.42;1817309;78;27338;-61
2022/12/06 07:04:26;;;;;;;7.58;4.55;;;;;;;-1.22;87.08;102067.66;1818562;78;25749;-61
2022/12/06 07:06:53;;;;;;;8.53;4.22;;;;;;;-1.16;87.14;102071.50;1819141;78;25765;-61
2022/12/06 07:09:20;;;;;;;6.12;4.03;;;;;;;-1.13;86.93;102066.17;1819920;78;25694;-61
2022/12/06 07:11:47;;;;;;;8.13;4.80;;;;;;;-1.13;86.89;102068.34;1832468;78;27449;-62
2022/12/06 07:14:14;;;;;;;6.90;4.42;;;;;;;-1.10;86.86;102064.77;1832306;78;25832;-62
2022/12/06 07:16:40;;;;;;;7.80;4.70;;;;;;;-1.07;86.79;102064.72;1804135;78;26210;-62
2022/12/06 07:19:07;;;;;;;8.93;5.00;;;;;;;-1.02;86.68;102065.48;1784603;80;25956;-61
2022/12/06 07:21:33;;;;;;;7.50;5.25;;;;;;;-1.05;86.45;102063.36;1819112;78;26645;-62
2022/12/06 07:24:00;;;;;;;7.05;4.90;;;;;;;-1.07;86.43;102054.59;1818247;78;27606;-62
2022/12/06 07:26:27;;;;;;;6.37;4.72;;;;;;;-1.10;86.59;102056.84;1792764;78;26644;-61
2022/12/06 07:28:56;;;;;;;7.70;4.55;;;;;;;-1.11;86.58;102050.70;1784600;80;26583;-62
2022/12/06 07:31:27;;;;;;;5.95;4.60;;;;;;;-1.11;86.64;102057.31;1754813;80;25956;-61
2022/12/06 07:33:59;;;;;;;10.18;4.92;;;;;;;-1.15;86.67;102045.52;1760388;81;25752;-62
2022/12/06 07:36:29;;;;;;;9.10;4.97;;;;;;;-1.19;86.84;102043.81;1792675;80;27624;-62
2022/12/06 07:38:58;;;;;;;5.55;4.12;;;;;;;-1.17;87.04;102039.38;1795009;77;25797;-61
2022/12/06 07:47:03;;;;;;;7.72;4.03;;;;;;;-1.19;87.01;102035.89;1766566;80;25980;-61
2022/12/06 07:49:30;;;;;;;6.53;4.75;;;;;;;-1.20;87.20;102040.75;1788023;80;27581;-61
2022/12/06 07:51:58;;;;;;;6.42;4.90;;;;;;;-1.22;87.32;102033.33;1787925;80;25909;-62
2022/12/06 07:54:25;;;;;;;8.40;4.92;;;;;;;-1.18;87.29;102038.95;1782006;79;25789;-61
2022/12/06 07:56:55;;;;;;;7.90;4.92;;;;;;;-1.16;87.17;102029.25;1780351;80;25842;-61
2022/12/06 07:59:21;;;;;;;7.17;4.45;;;;;;;-1.17;87.11;102037.63;1780241;80;25819;-61
2022/12/06 08:01:49;;;;;;;8.08;4.70;;;;;;;-1.15;87.27;102033.63;1780405;80;27607;-61
2022/12/06 08:04:16;;;;;;;7.30;4.87;;;;;;;-1.15;87.23;102031.84;1780092;80;25792;-61
2022/12/06 08:06:43;;;;;;;6.65;4.60;;;;;;;-1.15;87.32;102030.98;1780267;80;25812;-61
2022/12/06 08:09:10;;;;;;;15.05;4.97;;;;;;;-1.12;87.42;102029.63;1780033;80;25828;-60
2022/12/06 08:11:37;;;;;;;9.65;5.60;;;;;;;-1.06;87.41;102035.20;1778228;80;25810;-61
2022/12/06 08:14:05;;;;;;;7.72;4.78;;;;;;;-1.04;87.20;102034.73;1777905;80;27381;-61
2022/12/06 08:16:31;;;;;;;6.37;5.20;;;;;;;-1.02;87.10;102022.38;1778372;79;25920;-61
2022/12/06 08:18:58;;;;;;;12.40;5.22;;;;;;;-1.01;87.17;102022.33;1777980;80;25439;-61
2022/12/06 08:21:25;;;;;;;6.45;4.83;;;;;;;-0.98;87.13;102020.07;1778431;80;26731;-61
2022/12/06 08:23:54;;;;;;;6.03;4.42;;;;;;;-0.94;87.18;102019.13;1777876;80;25532;-61
2022/12/06 08:26:21;;;;;;;6.05;4.85;;;;;;;-0.96;87.08;102020.48;1778512;80;27433;-60
2022/12/06 08:28:48;;;;;;;7.33;4.55;;;;;;;-0.89;86.93;102025.63;1777828;79;25763;-61
2022/12/06 08:31:22;;;;;;;7.33;4.72;;;;;;;-0.88;86.99;102020.77;1778079;80;25733;-61
2022/12/06 08:33:49;;;;;;;9.13;5.37;;;;;;;-0.85;87.12;102016.75;1777855;80;25913;-61
2022/12/06 08:36:21;;;;;;;8.50;5.17;;;;;;;-0.79;86.89;102015.30;1778510;79;25928;-61
2022/12/06 08:38:49;;;;;;;7.92;4.87;;;;;;;-0.74;86.68;102019.16;1777988;80;27147;-61
2022/12/06 08:44:03;;;;;;;7.25;4.65;;;;;;;-0.75;86.59;102009.03;1782156;78;25729;-61
2022/12/06 08:46:33;;;;;;;9.93;5.05;;;;;;;-0.76;86.54;102009.92;1787306;80;25743;-61
2022/12/06 08:49:00;;;;;;;9.58;5.62;;;;;;;-0.72;86.72;102011.61;1787594;79;26571;-61
2022/12/06 08:51:28;;;;;;;10.15;5.62;;;;;;;-0.67;86.65;101996.98;1787755;79;27449;-61
2022/12/06 08:53:56;;;;;;;11.10;5.42;;;;;;;-0.65;86.73;101998.69;1778378;80;25735;-61
2022/12/06 08:56:24;;;;;;;12.13;5.22;;;;;;;-0.62;86.62;101986.31;1770707;79;25521;-62
2022/12/06 08:58:54;;;;;;;6.95;5.17;;;;;;;-0.58;86.82;101978.28;1767485;81;25861;-62
2022/12/06 09:01:25;;;;;;;9.00;5.20;;;;;;;-0.54;86.72;101979.92;1766900;81;27341;-62
2022/12/06 09:03:52;;;;;;;9.18;5.17;;;;;;;-0.51;86.57;101975.91;1771284;79;28662;-62
2022/12/06 09:06:20;;;;;;;7.12;5.62;;;;;;;-0.48;86.60;101971.88;1766428;81;25997;-62
2022/12/06 09:08:48;;;;;;;9.33;5.40;;;;;;;-0.42;86.78;101969.98;1756553;79;25882;-61
2022/12/06 09:11:16;;;;;;;8.55;5.55;;;;;;;-0.38;86.69;101970.34;1773989;78;26420;-60
2022/12/06 09:13:43;;;;;;;12.23;5.92;;;;;;;-0.36;86.56;101964.11;1766335;81;25867;-61
2022/12/06 09:16:17;;;;;;;7.90;6.22;;;;;;;-0.31;86.52;101960.03;1767962;81;27447;-61
2022/12/06 09:18:46;;;;;;;11.95;5.15;;;;;;;-0.33;86.38;101949.94;1765438;79;25517;-61
2022/12/06 09:21:16;;;;;;;7.42;5.60;;;;;;;-0.36;86.42;101956.18;1775271;79;26072;-61
2022/12/06 09:23:44;;;;;;;8.78;5.47;;;;;;;-0.33;86.42;101952.15;1798069;79;25984;-61
2022/12/06 09:26:11;;;;;;;6.67;5.15;;;;;;;-0.24;86.53;101944.89;1797709;79;25758;-61
2022/12/06 09:28:41;;;;;;;6.37;4.55;;;;;;;-0.19;86.21;101941.67;1797626;79;27466;-61
2022/12/06 09:31:09;;;;;;;9.10;5.70;;;;;;;-0.20;86.01;101937.28;1797438;79;25859;-61
2022/12/06 09:33:37;;;;;;;12.40;6.00;;;;;;;-0.23;86.00;101938.70;1798062;79;25735;-61
2022/12/06 09:36:18;;;;;;;8.55;4.90;;;;;;;-0.21;86.14;101931.58;1797226;79;26453;-61
2022/12/06 09:38:56;;;;;;;6.65;4.90;;;;;;;-0.22;86.17;101922.78;1797115;79;25752;-60
2022/12/06 09:41:57;;;;;;;8.08;5.60;;;;;;;-0.18;86.21;101923.11;1797901;79;27507;-60
2022/12/06 09:45:07;;;;;;;7.45;5.05;;;;;;;-0.17;85.89;101920.03;1786397;79;26243;-61
2022/12/06 09:48:10;;;;;;;6.67;5.22;;;;;;;-0.20;85.83;101913.05;1764349;81;25510;-61
2022/12/06 09:51:16;;;;;;;9.75;5.37;;;;;;;-0.22;85.84;101908.67;1756248;81;25822;-61
2022/12/06 09:53:57;;;;;;;10.18;6.15;;;;;;;-0.25;86.21;101901.70;1758006;81;25689;-61
2022/12/06 09:56:41;;;;;;;11.65;6.37;;;;;;;-0.23;86.38;101896.39;1768005;81;27654;-62
2022/12/06 09:59:49;;;;;;;8.18;5.35;;;;;;;-0.22;86.26;101894.13;1749409;81;25751;-61
2022/12/06 10:02:56;;;;;;;11.93;6.65;;;;;;;-0.24;86.34;101892.00;1766259;81;25728;-62
2022/12/06 10:06:01;;;;;;;12.35;6.72;;;;;;;-0.31;86.63;101887.31;1767200;81;26583;-61
2022/12/06 10:08:40;;;;;;;9.18;5.83;;;;;;;-0.32;86.80;101879.85;1767378;81;26477;-61
2022/12/06 10:11:44;;;;;;;10.78;6.33;;;;;;;-0.30;86.81;101873.19;1767996;81;27530;-61
2022/12/06 10:14:25;;;;;;;16.60;6.70;;;;;;;-0.28;86.96;101873.14;1745476;81;26157;-61
2022/12/06 10:17:14;;;;;;;8.80;5.33;;;;;;;-0.26;87.01;101862.08;1768576;81;25773;-61
2022/12/06 10:20:17;;;;;;;8.95;6.15;;;;;;;-0.25;87.28;101858.53;1769853;81;26338;-61
2022/12/06 10:23:15;;;;;;;11.55;6.42;;;;;;;-0.25;87.28;101851.92;1767329;81;25715;-62
2022/12/06 10:26:05;;;;;;;8.10;6.03;;;;;;;-0.22;87.49;101854.46;1767184;81;27480;-60
2022/12/06 10:28:55;;;;;;;8.55;5.58;;;;;;;-0.14;87.36;101848.55;1767227;81;25761;-60
2022/12/06 10:31:26;;;;;;;9.10;6.12;;;;;;;-0.07;87.29;101843.94;1765724;81;25853;-61
2022/12/06 10:34:01;;;;;;;9.53;4.90;;;;;;;-0.04;86.98;101835.46;1765693;81;25814;-61
2022/12/06 10:36:39;;;;;;;11.30;5.92;;;;;;;-0.05;86.99;101833.75;1765563;81;26046;-60
2022/12/06 10:39:17;;;;;;;9.53;6.05;;;;;;;0.00;87.01;101830.98;1769511;81;27363;-60
2022/12/06 10:41:55;;;;;;;11.73;6.65;;;;;;;0.03;87.06;101832.20;1769713;81;25730;-60
2022/12/06 10:44:28;;;;;;;11.05;5.95;;;;;;;0.08;87.09;101822.81;1767431;79;25777;-60
2022/12/06 10:47:16;;;;;;;10.48;5.62;;;;;;;0.14;86.81;101816.02;1765321;81;26428;-60
2022/12/06 10:50:00;;;;;;;7.55;5.33;;;;;;;0.13;86.72;101812.52;1764465;81;25808;-60
2022/12/06 10:52:44;;;;;;;10.63;5.78;;;;;;;0.14;86.77;101818.22;1766056;81;28414;-61
2022/12/06 10:55:33;;;;;;;10.28;6.17;;;;;;;0.14;86.90;101804.11;1738948;81;25832;-61
2022/12/06 10:58:16;;;;;;;10.65;6.05;;;;;;;0.21;86.91;101800.84;1766536;79;25700;-61
2022/12/06 11:01:09;;;;;;;14.93;9.03;;;;;;;0.23;86.81;101797.23;1766597;81;25816;-61
2022/12/06 11:04:05;;;;;;;11.87;7.33;;;;;;;0.27;86.65;101795.39;1735667;82;25767;-60
2022/12/06 11:06:42;;;;;;;9.68;6.00;;;;;;;0.31;86.45;101793.05;1702837;82;27501;-61
2022/12/06 11:09:44;;;;;;;9.60;6.15;;;;;;;0.31;86.32;101792.58;1737314;81;25772;-61
2022/12/06 11:12:36;;;;;;;15.15;7.75;;;;;;;0.34;86.16;101792.09;1766712;81;25693;-61
2022/12/06 11:15:17;;;;;;;15.23;6.05;;;;;;;0.34;86.06;101785.47;1736282;81;25804;-61
2022/12/06 11:17:50;;;;;;;11.28;5.62;;;;;;;0.36;85.78;101779.21;1765955;81;25826;-61
2022/12/06 11:20:40;;;;;;;9.58;5.97;;;;;;;0.36;85.86;101778.36;1763512;81;27547;-61
2022/12/06 11:23:36;;;;;;;11.53;6.10;;;;;;;0.35;85.81;101773.97;1765654;81;25782;-61
2022/12/06 11:26:27;;;;;;;6.42;5.17;;;;;;;0.34;85.91;101769.59;1765665;81;25704;-61
2022/12/06 11:29:06;;;;;;;13.65;6.72;;;;;;;0.35;85.67;101764.70;1764517;81;26637;-62
2022/12/06 11:31:44;;;;;;;11.25;5.72;;;;;;;0.35;85.48;101760.73;1765626;81;25786;-62
2022/12/06 11:34:40;;;;;;;9.73;6.25;;;;;;;0.34;85.38;101764.30;1766282;81;27452;-63
2022/12/06 11:37:11;;;;;;;13.58;6.87;;;;;;;0.32;85.37;101752.44;1765412;81;25756;-61
2022/12/06 11:39:39;;;;;;;13.05;6.15;;;;;;;0.33;85.46;101750.64;1742717;81;25851;-61
2022/12/06 11:42:09;;;;;;;10.50;5.85;;;;;;;0.34;85.62;101757.23;1734423;82;26471;-61
2022/12/06 11:44:59;;;;;;;7.37;4.90;;;;;;;0.34;85.74;101755.03;1769813;79;25818;-61
2022/12/06 11:47:27;;;;;;;8.95;5.70;;;;;;;0.30;85.62;101744.55;1793597;80;27489;-61
2022/12/06 11:49:56;;;;;;;9.33;5.58;;;;;;;0.28;85.71;101739.75;1784997;80;25813;-61
2022/12/06 11:52:36;;;;;;;7.65;4.60;;;;;;;0.26;85.71;101732.31;1780349;80;26066;-61
2022/12/06 11:55:26;;;;;;;6.33;4.22;;;;;;;0.25;85.82;101729.25;1784018;80;25850;-61
2022/12/06 11:58:04;;;;;;;7.67;4.90;;;;;;;0.25;85.90;101723.11;1792744;80;26119;-61
2022/12/06 12:00:32;;;;;;;8.60;5.28;;;;;;;0.22;86.01;101713.48;1790619;80;28047;-61
2022/12/06 12:02:59;;;;;;;8.93;5.10;;;;;;;0.18;86.05;101710.98;1784722;80;25802;-62
2022/12/06 12:05:29;;;;;;;11.03;5.33;;;;;;;0.14;86.41;101711.05;1791645;80;25782;-61
2022/12/06 12:08:01;;;;;;;9.95;5.03;;;;;;;0.16;86.70;101711.00;1793640;80;25837;-62
2022/12/06 12:10:37;;;;;;;8.35;5.55;;;;;;;0.15;86.62;101698.23;1773302;79;25668;-62
2022/12/06 12:16:05;;;;;;;8.15;5.10;;;;;;;0.14;86.98;101691.21;1784053;80;27293;-61
2022/12/06 12:18:40;;;;;;;11.15;6.20;;;;;;;0.14;86.99;101683.71;1793505;80;25871;-61
2022/12/06 12:21:07;;;;;;;9.43;5.70;;;;;;;0.20;87.01;101683.98;1779560;80;25791;-61
2022/12/06 12:23:44;;;;;;;10.30;6.35;;;;;;;0.20;86.96;101683.55;1761051;81;26162;-61
2022/12/06 12:26:16;;;;;;;7.83;5.95;;;;;;;0.22;86.94;101676.88;1763612;80;28341;-61